Main page
METAR-TAF:

METAR-TAF

Airports :

Odate–Noshiro Airport

Odate-Noshiro, Japan

latitude: 40-11N, longitude: 140-12E, elevation: 84 m

Current weather observation

The report was made 27 minutes ago, at 04:00 UTC
Wind 4 kt from the South
Temperature 8°C
Humidity 93%
Pressure 1019 hPa
Visibility 10 km or more
Few clouds at a height of 500 ft
Scattered clouds at a height of 1500 ft
Broken clouds at a height of 2500 ft
light rain showers

METAR: RJSR 230400Z 18004KT 9999 -SHRA FEW005 SCT015 BKN025 08/07 Q1019

Time: 13:27 (04:27 UTC)


TAF: missing

Weather observations and forecasts of more than 4000 airports (METAR and TAF reports).

The available stations are represented by yellow and red dots on the map.

Hover mouse over dot to see the name of the station.

Then click to see weather observations and forecasts.

To change the map : click on the green buttons with a black cross to zoom in, on the green button with a dash to zoom out, or on the green arrows for adjacent maps.


METAR-TAF: